Terminal Aerodrome Forecast
Issued by NWS

Home | Current Version | Previous Version | Text Only | Print | Product List | Glossary On
Versions: 1 2 3 4 5 6 7 8 9 10 11 12 13
000
FTUS41 KAKQ 271100
TAFPHF
TAF
KPHF 271138Z 2712/2812 21006KT P6SM SCT200
      TEMPO 2712/2713 2SM BR
     FM271900 19006KT P6SM SCT150
     FM280400 21005KT P6SM BKN100=

USA.gov is the U.S. government's official web portal to all federal, state and local government web resources and services.